createdAt,value
2022-08-09T00:01:10.724Z,97.00
2022-08-09T00:04:03.619Z,97.10
2022-08-09T00:06:30.454Z,97.20
2022-08-09T00:08:58.995Z,97.20
2022-08-09T00:11:56.887Z,97.30
2022-08-09T00:14:17.150Z,97.40
2022-08-09T00:16:49.116Z,97.40
2022-08-09T00:19:18.562Z,97.40
2022-08-09T00:21:56.760Z,97.40
2022-08-09T00:24:27.802Z,97.50
2022-08-09T00:26:54.702Z,97.50
2022-08-09T00:29:39.134Z,97.80
2022-08-09T00:32:08.216Z,97.60
2022-08-09T00:34:39.639Z,97.60
2022-08-09T00:37:13.128Z,97.60
2022-08-09T00:40:13.927Z,97.70
2022-08-09T00:44:10.642Z,97.70
2022-08-09T00:45:16.262Z,97.70
2022-08-09T00:47:43.637Z,97.80
2022-08-09T00:50:14.869Z,97.90
2022-08-09T00:52:41.970Z,97.90
2022-08-09T00:55:16.645Z,97.90
2022-08-09T00:57:59.374Z,98.00
2022-08-09T01:00:27.678Z,98.00
2022-08-09T01:03:11.687Z,98.10
2022-08-09T01:05:53.818Z,98.20
2022-08-09T01:08:49.531Z,98.30
2022-08-09T01:11:37.043Z,98.30
2022-08-09T01:14:47.995Z,98.40
2022-08-09T01:17:34.010Z,98.50
2022-08-09T01:20:09.093Z,98.50
2022-08-09T01:22:55.075Z,98.60
2022-08-09T01:25:24.884Z,98.70
2022-08-09T01:27:54.296Z,98.80
2022-08-09T01:30:28.543Z,98.80
2022-08-09T01:33:06.373Z,98.90
2022-08-09T01:35:47.419Z,98.90
2022-08-09T01:38:23.349Z,99.00
2022-08-09T01:41:06.846Z,99.10
2022-08-09T01:43:50.126Z,99.20
2022-08-09T01:46:26.799Z,99.20
2022-08-09T01:49:14.985Z,99.20
2022-08-09T01:51:53.699Z,99.20
2022-08-09T01:54:25.949Z,99.30
2022-08-09T01:56:54.928Z,99.30
2022-08-09T01:59:24.326Z,99.40
2022-08-09T02:01:59.751Z,99.40
2022-08-09T02:04:29.713Z,99.40
2022-08-09T02:07:15.350Z,99.50
2022-08-09T02:09:59.645Z,99.50
2022-08-09T02:12:30.712Z,99.60
2022-08-09T02:14:59.544Z,99.60
2022-08-09T02:18:00.080Z,99.70
2022-08-09T02:20:25.249Z,99.70
2022-08-09T02:23:08.108Z,99.70
2022-08-09T02:25:42.459Z,99.80
2022-08-09T02:28:24.281Z,99.90
2022-08-09T02:30:58.423Z,99.90
2022-08-09T02:33:58.217Z,99.90
2022-08-09T02:36:33.381Z,99.90
2022-08-09T02:39:06.975Z,99.80
2022-08-09T02:41:50.630Z,99.90
2022-08-09T02:44:30.240Z,99.90
2022-08-09T02:47:01.220Z,99.90
2022-08-09T02:49:38.939Z,99.90
2022-08-09T02:52:13.059Z,99.90
2022-08-09T02:54:54.453Z,99.90
2022-08-09T02:57:25.515Z,99.90
2022-08-09T03:00:11.347Z,99.90
2022-08-09T03:03:00.113Z,99.90
2022-08-09T03:05:29.487Z,99.90
2022-08-09T03:08:04.521Z,99.90
2022-08-09T03:10:33.276Z,99.90
2022-08-09T03:13:01.455Z,99.90
2022-08-09T03:15:40.472Z,99.90
2022-08-09T03:18:19.064Z,99.90
2022-08-09T03:20:59.392Z,99.90
2022-08-09T03:23:26.242Z,99.90
2022-08-09T03:25:57.871Z,99.90
2022-08-09T03:28:27.092Z,99.90
2022-08-09T03:30:55.546Z,99.90
2022-08-09T03:33:23.400Z,99.90
2022-08-09T03:36:13.570Z,99.90
2022-08-09T03:38:43.015Z,99.90
2022-08-09T03:41:16.344Z,99.90
2022-08-09T03:44:07.587Z,99.90
2022-08-09T03:46:32.719Z,99.90
2022-08-09T03:49:04.162Z,99.90
2022-08-09T03:51:55.031Z,99.90
2022-08-09T03:54:32.013Z,99.90
2022-08-09T03:57:17.881Z,99.90
2022-08-09T03:59:54.587Z,99.90
2022-08-09T04:02:28.585Z,99.90
2022-08-09T04:05:06.336Z,99.90
2022-08-09T04:07:52.640Z,99.90
2022-08-09T04:10:28.463Z,99.90
2022-08-09T04:12:57.692Z,99.90
2022-08-09T04:15:39.123Z,99.90
2022-08-09T04:18:16.658Z,99.90
2022-08-09T04:20:46.242Z,99.90
2022-08-09T04:23:16.797Z,99.90
2022-08-09T04:25:51.886Z,99.90
2022-08-09T04:28:30.798Z,99.90
2022-08-09T04:31:09.377Z,99.90
2022-08-09T04:33:51.953Z,99.90
2022-08-09T04:36:24.649Z,99.90
2022-08-09T04:38:53.205Z,99.90
2022-08-09T04:41:23.939Z,99.90
2022-08-09T04:44:06.026Z,99.90
2022-08-09T04:46:57.636Z,99.90
2022-08-09T04:49:22.347Z,99.90
2022-08-09T04:52:07.419Z,99.90
2022-08-09T04:54:36.631Z,99.90
2022-08-09T04:57:04.068Z,99.90
2022-08-09T04:59:31.927Z,99.90
2022-08-09T05:01:58.657Z,99.90
2022-08-09T05:04:31.165Z,99.90
2022-08-09T05:06:58.431Z,99.90
2022-08-09T05:09:25.244Z,99.90
2022-08-09T05:12:09.706Z,99.90
2022-08-09T05:14:38.018Z,99.90
2022-08-09T05:17:15.294Z,99.90
2022-08-09T05:19:57.039Z,99.90
2022-08-09T05:22:33.098Z,99.90
2022-08-09T05:25:12.249Z,99.90
2022-08-09T05:27:45.423Z,99.90
2022-08-09T05:30:13.921Z,99.90
2022-08-09T05:32:41.089Z,99.90
2022-08-09T05:35:11.387Z,99.90
2022-08-09T05:37:47.967Z,99.90
2022-08-09T05:40:18.369Z,99.90
2022-08-09T05:42:45.528Z,99.90
2022-08-09T05:45:14.244Z,99.90
2022-08-09T05:47:52.141Z,99.90
2022-08-09T05:50:36.187Z,99.90
2022-08-09T05:53:21.546Z,99.90
2022-08-09T05:55:58.807Z,99.90
2022-08-09T05:58:25.874Z,99.90
2022-08-09T06:00:53.745Z,99.90
2022-08-09T06:03:20.767Z,99.90
2022-08-09T06:05:57.867Z,99.90
2022-08-09T06:08:32.891Z,99.90
2022-08-09T06:11:00.682Z,99.90
2022-08-09T06:13:28.556Z,99.90
2022-08-09T06:16:01.694Z,99.90
2022-08-09T06:18:32.428Z,99.90
2022-08-09T06:20:59.833Z,99.90
2022-08-09T06:23:58.206Z,99.90
2022-08-09T06:26:21.293Z,99.90
2022-08-09T06:29:00.072Z,99.90
2022-08-09T06:31:31.311Z,99.90
2022-08-09T06:34:06.801Z,99.90
2022-08-09T06:36:34.331Z,99.90
2022-08-09T06:39:02.622Z,99.90
2022-08-09T06:42:07.531Z,99.90
2022-08-09T06:44:22.955Z,99.80
2022-08-09T06:46:55.278Z,99.50
2022-08-09T06:49:44.833Z,99.30
2022-08-09T06:52:10.019Z,99.10
2022-08-09T06:54:39.089Z,99.10
2022-08-09T06:57:08.483Z,98.90
2022-08-09T07:00:51.003Z,98.90
2022-08-09T07:02:22.420Z,99.10
2022-08-09T07:04:57.912Z,98.60
2022-08-09T07:07:58.881Z,98.40
2022-08-09T07:10:29.667Z,98.20
2022-08-09T07:12:58.536Z,97.80
2022-08-09T07:16:39.058Z,97.70
2022-08-09T07:18:14.198Z,97.50
2022-08-09T07:20:43.625Z,97.30
2022-08-09T07:23:18.590Z,97.10
2022-08-09T07:25:52.525Z,96.90
2022-08-09T07:28:29.629Z,96.90
2022-08-09T07:30:56.413Z,96.60
2022-08-09T07:33:23.535Z,96.30
2022-08-09T07:35:54.350Z,96.00
2022-08-09T07:38:23.353Z,95.90
2022-08-09T07:41:08.063Z,96.00
2022-08-09T07:43:49.619Z,96.00
2022-08-09T07:46:19.566Z,95.80
2022-08-09T07:48:52.813Z,95.50
2022-08-09T07:52:04.834Z,95.00
2022-08-09T07:54:14.052Z,94.80
2022-08-09T07:56:49.031Z,94.70
2022-08-09T07:59:25.337Z,94.60
2022-08-09T08:02:00.907Z,94.40
2022-08-09T08:04:32.315Z,94.30
2022-08-09T08:07:15.199Z,94.20
2022-08-09T08:09:55.279Z,93.90
2022-08-09T08:12:43.279Z,93.70
2022-08-09T08:15:17.891Z,93.60
2022-08-09T08:17:52.970Z,93.60
2022-08-09T08:20:30.594Z,93.10
2022-08-09T08:23:06.527Z,92.70
2022-08-09T08:25:45.928Z,92.50
2022-08-09T08:28:18.238Z,92.20
2022-08-09T08:30:53.213Z,91.90
2022-08-09T08:33:23.623Z,92.00
2022-08-09T08:35:59.816Z,92.10
2022-08-09T08:38:29.077Z,91.30
2022-08-09T08:40:57.659Z,91.00
2022-08-09T08:43:27.175Z,90.70
2022-08-09T08:46:03.833Z,90.50
2022-08-09T08:48:51.898Z,90.20
2022-08-09T08:51:22.942Z,89.80
2022-08-09T08:54:04.416Z,89.90
2022-08-09T08:56:42.042Z,89.50
2022-08-09T08:59:19.161Z,89.40
2022-08-09T09:01:53.104Z,88.90
2022-08-09T09:04:37.819Z,89.20
2022-08-09T09:07:15.377Z,88.20
2022-08-09T09:10:02.027Z,87.50
2022-08-09T09:12:35.458Z,87.20
2022-08-09T09:15:05.878Z,87.20
2022-08-09T09:17:49.392Z,87.00
2022-08-09T09:20:21.235Z,87.30
2022-08-09T09:22:57.010Z,87.10
2022-08-09T09:26:02.486Z,85.80
2022-08-09T09:29:02.013Z,86.10
2022-08-09T09:32:01.516Z,85.60
2022-08-09T09:34:15.361Z,84.70
2022-08-09T09:36:51.308Z,83.70
2022-08-09T09:39:25.580Z,84.20
2022-08-09T09:42:25.694Z,83.70
2022-08-09T09:45:01.223Z,84.00
2022-08-09T09:47:30.187Z,84.50
2022-08-09T09:50:15.446Z,83.10
2022-08-09T09:52:53.591Z,82.90
2022-08-09T09:55:31.904Z,81.60
2022-08-09T09:58:19.316Z,81.30
2022-08-09T10:00:53.952Z,81.80
2022-08-09T10:03:44.491Z,80.80
2022-08-09T10:06:13.238Z,80.80
2022-08-09T10:08:54.432Z,80.00
2022-08-09T10:12:00.702Z,79.30
2022-08-09T10:14:32.911Z,77.30
2022-08-09T10:17:39.931Z,77.70
2022-08-09T10:20:01.279Z,77.20
2022-08-09T10:22:41.066Z,76.70
2022-08-09T10:25:11.994Z,74.60
2022-08-09T10:27:57.272Z,74.60
2022-08-09T10:33:29.556Z,74.30
2022-08-09T10:36:09.393Z,73.50
2022-08-09T10:38:56.873Z,72.50
2022-08-09T10:41:26.677Z,72.10
2022-08-09T10:43:59.381Z,72.70
2022-08-09T10:46:54.582Z,71.90
2022-08-09T10:49:50.210Z,71.50
2022-08-09T10:52:32.774Z,70.90
2022-08-09T10:55:24.957Z,70.10
2022-08-09T10:57:56.111Z,70.50
2022-08-09T11:00:29.568Z,69.90
2022-08-09T11:03:18.429Z,69.60
2022-08-09T11:06:18.665Z,70.20
2022-08-09T11:08:51.102Z,70.10
2022-08-09T11:11:20.792Z,69.20
2022-08-09T11:14:28.041Z,69.00
2022-08-09T11:16:56.247Z,68.10
2022-08-09T11:20:11.462Z,67.10
2022-08-09T11:22:47.068Z,67.00
2022-08-09T11:25:45.384Z,67.10
2022-08-09T11:28:38.490Z,67.10
2022-08-09T11:31:49.333Z,66.80
2022-08-09T11:34:43.003Z,66.30
2022-08-09T11:37:25.149Z,66.60
2022-08-09T11:40:23.529Z,65.90
2022-08-09T11:42:55.439Z,65.50
2022-08-09T11:45:42.802Z,66.50
2022-08-09T11:48:24.802Z,65.70
2022-08-09T11:51:37.952Z,65.60
2022-08-09T11:54:27.686Z,64.50
2022-08-09T11:58:00.824Z,66.10
2022-08-09T12:00:27.301Z,64.40
2022-08-09T12:02:55.891Z,63.70
2022-08-09T12:05:32.257Z,64.60
2022-08-09T12:08:01.396Z,63.70
2022-08-09T12:10:39.529Z,64.10
2022-08-09T12:14:10.297Z,63.00
2022-08-09T12:16:04.011Z,64.10
2022-08-09T12:18:33.608Z,64.20
2022-08-09T12:21:03.046Z,64.40
2022-08-09T12:23:56.164Z,64.10
2022-08-09T12:26:19.727Z,63.70
2022-08-09T12:28:59.432Z,61.90
2022-08-09T12:31:59.004Z,62.00
2022-08-09T12:34:38.366Z,61.60
2022-08-09T12:37:09.724Z,62.80
2022-08-09T12:40:10.983Z,61.70
2022-08-09T12:42:43.981Z,60.20
2022-08-09T12:45:34.873Z,60.30
2022-08-09T12:47:58.878Z,58.30
2022-08-09T12:50:25.809Z,58.30
2022-08-09T12:53:08.529Z,56.90
2022-08-09T12:56:16.081Z,56.90
2022-08-09T12:58:28.348Z,57.20
2022-08-09T13:00:56.202Z,58.60
2022-08-09T13:03:53.345Z,57.90
2022-08-09T13:06:34.613Z,57.00
2022-08-09T13:09:06.244Z,57.50
2022-08-09T13:11:39.503Z,56.60
2022-08-09T13:14:42.859Z,56.40
2022-08-09T13:17:04.318Z,56.10
2022-08-09T13:20:09.521Z,54.80
2022-08-09T13:22:45.598Z,55.10
2022-08-09T13:25:16.720Z,55.20
2022-08-09T13:27:48.885Z,56.00
2022-08-09T13:30:50.883Z,55.60
2022-08-09T13:33:51.722Z,56.00
2022-08-09T13:36:24.162Z,56.70
2022-08-09T13:39:31.064Z,56.10
2022-08-09T13:42:00.913Z,55.20
2022-08-09T13:44:30.094Z,54.00
2022-08-09T13:47:30.806Z,54.10
2022-08-09T13:49:57.663Z,54.10
2022-08-09T13:52:27.706Z,54.70
2022-08-09T13:55:00.629Z,54.80
2022-08-09T13:57:35.961Z,54.30
2022-08-09T14:00:09.256Z,54.50
2022-08-09T14:02:42.332Z,53.90
2022-08-09T14:05:57.013Z,53.60
2022-08-09T14:08:10.416Z,53.80
2022-08-09T14:10:49.467Z,54.00
2022-08-09T14:14:16.368Z,54.80
2022-08-09T14:16:15.308Z,55.10
2022-08-09T14:18:49.285Z,55.80
2022-08-09T14:21:20.135Z,56.00
2022-08-09T14:23:53.730Z,54.90
2022-08-09T14:26:25.225Z,55.20
2022-08-09T14:28:52.500Z,56.00
2022-08-09T14:31:19.248Z,56.80
2022-08-09T14:33:54.760Z,56.20
2022-08-09T14:36:24.793Z,55.60
2022-08-09T14:38:54.564Z,56.20
2022-08-09T14:41:34.771Z,56.50
2022-08-09T14:44:07.397Z,57.50
2022-08-09T14:47:00.265Z,57.40
2022-08-09T14:49:26.259Z,57.00
2022-08-09T14:51:58.320Z,57.60
2022-08-09T14:54:28.292Z,56.90
2022-08-09T14:56:57.963Z,56.50
2022-08-09T14:59:28.537Z,57.50
2022-08-09T15:01:55.707Z,57.90
2022-08-09T15:04:23.828Z,58.10
2022-08-09T15:06:54.638Z,59.00
2022-08-09T15:10:03.602Z,59.20
2022-08-09T15:12:09.864Z,58.10
2022-08-09T15:14:41.217Z,58.20
2022-08-09T15:17:09.651Z,58.10
2022-08-09T15:19:59.550Z,58.30
2022-08-09T15:22:26.437Z,58.50
2022-08-09T15:24:54.282Z,58.10
2022-08-09T15:27:23.823Z,58.40
2022-08-09T15:30:56.814Z,58.00
2022-08-09T15:32:41.387Z,58.30
2022-08-09T15:35:40.386Z,58.20
2022-08-09T15:38:10.959Z,57.80
2022-08-09T15:40:44.206Z,58.60
2022-08-09T15:43:13.350Z,58.50
2022-08-09T15:46:07.855Z,59.10
2022-08-09T15:48:31.904Z,58.30
2022-08-09T15:51:00.671Z,57.60
2022-08-09T15:54:03.194Z,57.70
2022-08-09T15:56:29.072Z,57.50
2022-08-09T15:58:58.291Z,58.40
2022-08-09T16:01:31.084Z,59.50
2022-08-09T16:04:01.468Z,60.10
2022-08-09T16:06:35.487Z,59.80
2022-08-09T16:09:05.532Z,60.10
2022-08-09T16:11:33.197Z,60.60
2022-08-09T16:14:06.895Z,60.10
2022-08-09T16:16:36.873Z,60.70
2022-08-09T16:19:07.569Z,59.30
2022-08-09T16:21:35.491Z,58.90
2022-08-09T16:24:04.593Z,59.20
2022-08-09T16:26:35.004Z,59.50
2022-08-09T16:29:12.983Z,58.40
2022-08-09T16:32:18.923Z,59.10
2022-08-09T16:34:56.061Z,59.80
2022-08-09T16:37:53.328Z,59.90
2022-08-09T16:40:10.215Z,60.20
2022-08-09T16:42:37.813Z,60.20
2022-08-09T16:45:06.408Z,59.50
2022-08-09T16:48:41.898Z,59.90
2022-08-09T16:50:29.819Z,60.00
2022-08-09T16:53:03.352Z,60.40
2022-08-09T16:55:57.716Z,60.40
2022-08-09T16:58:22.333Z,60.60
2022-08-09T17:00:50.440Z,60.30
2022-08-09T17:03:24.108Z,61.20
2022-08-09T17:06:07.646Z,61.80
2022-08-09T17:09:02.754Z,61.20
2022-08-09T17:11:40.150Z,61.50
2022-08-09T17:14:25.421Z,61.40
2022-08-09T17:17:00.160Z,61.00
2022-08-09T17:19:47.212Z,61.60
2022-08-09T17:22:35.975Z,62.00
2022-08-09T17:25:10.025Z,61.10
2022-08-09T17:27:49.581Z,61.80
2022-08-09T17:30:28.079Z,63.10
2022-08-09T17:33:04.872Z,63.70
2022-08-09T17:35:35.110Z,63.80
2022-08-09T17:38:11.726Z,64.20
2022-08-09T17:40:49.816Z,64.60
2022-08-09T17:43:33.655Z,65.70
2022-08-09T17:46:06.838Z,66.20
2022-08-09T17:48:38.778Z,66.00
2022-08-09T17:51:17.203Z,65.70
2022-08-09T17:53:52.077Z,66.10
2022-08-09T17:56:27.218Z,66.20
2022-08-09T17:58:57.788Z,66.70
2022-08-09T18:01:57.863Z,67.00
2022-08-09T18:04:15.588Z,67.40
2022-08-09T18:06:54.332Z,67.60
2022-08-09T18:09:23.507Z,68.10
2022-08-09T18:12:05.872Z,69.20
2022-08-09T18:14:49.863Z,69.30
2022-08-09T18:17:27.215Z,69.20
2022-08-09T18:20:55.956Z,69.10
2022-08-09T18:22:56.469Z,68.40
2022-08-09T18:25:52.613Z,68.30
2022-08-09T18:28:21.589Z,68.00
2022-08-09T18:30:59.189Z,66.80
2022-08-09T18:33:26.314Z,66.40
2022-08-09T18:36:00.163Z,65.90
2022-08-09T18:38:27.355Z,65.70
2022-08-09T18:40:56.543Z,65.50
2022-08-09T18:43:24.673Z,65.50
2022-08-09T18:46:49.610Z,66.10
2022-08-09T18:48:38.288Z,65.90
2022-08-09T18:51:09.359Z,65.70
2022-08-09T18:54:00.585Z,66.40
2022-08-09T18:56:28.532Z,67.70
2022-08-09T18:58:57.604Z,69.20
2022-08-09T19:01:27.819Z,70.20
2022-08-09T19:04:10.552Z,71.20
2022-08-09T19:06:39.830Z,72.20
2022-08-09T19:09:20.565Z,73.00
2022-08-09T19:12:04.849Z,74.00
2022-08-09T19:14:31.848Z,75.00
2022-08-09T19:17:00.806Z,76.40
2022-08-09T19:19:29.044Z,76.50
2022-08-09T19:22:08.552Z,76.80
2022-08-09T19:25:07.567Z,77.20
2022-08-09T19:27:28.495Z,77.10
2022-08-09T19:30:25.129Z,77.80
2022-08-09T19:32:43.381Z,78.30
2022-08-09T19:35:13.681Z,78.60
2022-08-09T19:37:54.363Z,79.20
2022-08-09T19:40:23.757Z,79.50
2022-08-09T19:43:10.330Z,80.10
2022-08-09T19:45:46.382Z,80.50
2022-08-09T19:48:14.070Z,80.90
2022-08-09T19:50:50.773Z,81.00
2022-08-09T19:53:23.501Z,81.60
2022-08-09T19:56:06.155Z,82.10
2022-08-09T19:58:39.380Z,82.50
2022-08-09T20:01:06.168Z,83.20
2022-08-09T20:04:09.596Z,83.70
2022-08-09T20:06:29.661Z,84.00
2022-08-09T20:08:59.367Z,84.20
2022-08-09T20:11:43.362Z,84.60
2022-08-09T20:14:20.165Z,85.10
2022-08-09T20:16:54.351Z,85.10
2022-08-09T20:19:42.481Z,85.60
2022-08-09T20:22:14.289Z,85.90
2022-08-09T20:24:51.902Z,86.20
2022-08-09T20:27:25.665Z,86.80
2022-08-09T20:29:57.938Z,86.90
2022-08-09T20:32:33.307Z,87.30
2022-08-09T20:35:14.270Z,87.70
2022-08-09T20:38:20.350Z,88.10
2022-08-09T20:40:32.019Z,87.80
2022-08-09T20:43:19.012Z,88.10
2022-08-09T20:45:59.801Z,88.60
2022-08-09T20:48:32.057Z,88.80
2022-08-09T20:51:00.965Z,89.20
2022-08-09T20:53:35.220Z,89.50
2022-08-09T20:56:17.422Z,89.70
2022-08-09T20:58:57.963Z,90.00
2022-08-09T21:01:35.010Z,90.10
2022-08-09T21:05:51.828Z,90.20
2022-08-09T21:07:13.145Z,90.30
2022-08-09T21:09:56.183Z,90.30
2022-08-09T21:12:32.187Z,90.50
2022-08-09T21:15:01.391Z,90.60
2022-08-09T21:18:24.853Z,90.80
2022-08-09T21:20:23.030Z,90.80
2022-08-09T21:22:54.492Z,90.80
2022-08-09T21:25:44.217Z,90.90
2022-08-09T21:28:35.434Z,91.00
2022-08-09T21:31:13.675Z,91.10
2022-08-09T21:33:51.209Z,91.20
2022-08-09T21:36:20.918Z,91.20
2022-08-09T21:38:56.772Z,91.30
2022-08-09T21:42:03.527Z,91.20
2022-08-09T21:44:32.983Z,91.30
2022-08-09T21:47:07.665Z,91.40
2022-08-09T21:49:39.197Z,91.50
2022-08-09T21:52:14.807Z,91.50
2022-08-09T21:54:57.080Z,91.60
2022-08-09T21:57:38.763Z,91.60
2022-08-09T22:00:25.924Z,91.70
2022-08-09T22:02:59.387Z,91.80
2022-08-09T22:05:36.745Z,91.80
2022-08-09T22:08:13.141Z,92.20
2022-08-09T22:11:05.272Z,92.00
2022-08-09T22:13:43.380Z,92.00
2022-08-09T22:16:13.406Z,92.10
2022-08-09T22:18:53.572Z,92.10
2022-08-09T22:21:24.741Z,92.30
2022-08-09T22:24:01.601Z,92.40
2022-08-09T22:26:35.416Z,92.40
2022-08-09T22:29:07.363Z,92.50
2022-08-09T22:31:36.808Z,92.50
2022-08-09T22:34:09.787Z,92.50
2022-08-09T22:36:46.370Z,92.50
2022-08-09T22:39:46.994Z,92.60
2022-08-09T22:42:02.463Z,92.60
2022-08-09T22:44:29.857Z,92.70
2022-08-09T22:48:13.938Z,92.70
2022-08-09T22:49:47.553Z,92.80
2022-08-09T22:52:19.671Z,92.80
2022-08-09T22:54:47.655Z,92.80
2022-08-09T22:57:17.091Z,92.80
2022-08-09T22:59:57.431Z,92.90
2022-08-09T23:02:26.040Z,92.80
2022-08-09T23:04:55.266Z,92.80
2022-08-09T23:08:29.150Z,92.90
2022-08-09T23:10:31.702Z,92.90
2022-08-09T23:12:58.913Z,92.80
2022-08-09T23:15:26.831Z,92.80
2022-08-09T23:17:53.861Z,92.80
2022-08-09T23:20:20.907Z,92.70
2022-08-09T23:22:47.617Z,92.70
2022-08-09T23:25:17.510Z,92.70
2022-08-09T23:27:58.443Z,92.70
2022-08-09T23:30:33.588Z,92.70
2022-08-09T23:33:02.494Z,92.70
2022-08-09T23:35:29.258Z,92.70
2022-08-09T23:37:56.112Z,92.60
2022-08-09T23:40:22.937Z,92.50
2022-08-09T23:42:49.713Z,92.90
2022-08-09T23:45:37.281Z,92.40
2022-08-09T23:48:08.539Z,92.40
2022-08-09T23:50:35.961Z,92.40
2022-08-09T23:53:02.853Z,92.40
2022-08-09T23:55:30.381Z,92.30
2022-08-09T23:58:10.310Z,92.30
